sensor_id;sensor_type;location;lat;lon;timestamp;temperature;humidity
79467;SHT30;68933;49.726;9.226;2023-04-25T00:02:05;10.8;72
79467;SHT30;68933;49.726;9.226;2023-04-25T00:04:18;10.8;72
79467;SHT30;68933;49.726;9.226;2023-04-25T00:06:31;10.8;72
79467;SHT30;68933;49.726;9.226;2023-04-25T00:08:44;10.8;72
79467;SHT30;68933;49.726;9.226;2023-04-25T00:10:57;10.7;72
79467;SHT30;68933;49.726;9.226;2023-04-25T00:13:10;10.7;72
79467;SHT30;68933;49.726;9.226;2023-04-25T00:15:23;10.7;72
79467;SHT30;68933;49.726;9.226;2023-04-25T00:17:36;10.7;72
79467;SHT30;68933;49.726;9.226;2023-04-25T00:19:49;10.6;72
79467;SHT30;68933;49.726;9.226;2023-04-25T00:22:03;10.6;72
79467;SHT30;68933;49.726;9.226;2023-04-25T00:24:15;10.6;72
79467;SHT30;68933;49.726;9.226;2023-04-25T00:26:28;10.6;72
79467;SHT30;68933;49.726;9.226;2023-04-25T00:28:41;10.6;72
79467;SHT30;68933;49.726;9.226;2023-04-25T00:30:54;10.6;72
79467;SHT30;68933;49.726;9.226;2023-04-25T00:33:07;10.6;72
79467;SHT30;68933;49.726;9.226;2023-04-25T00:35:20;10.6;72
79467;SHT30;68933;49.726;9.226;2023-04-25T00:37:33;10.6;72
79467;SHT30;68933;49.726;9.226;2023-04-25T00:39:46;10.5;72
79467;SHT30;68933;49.726;9.226;2023-04-25T00:42:00;10.5;72
79467;SHT30;68933;49.726;9.226;2023-04-25T00:44:12;10.5;72
79467;SHT30;68933;49.726;9.226;2023-04-25T00:46:25;10.5;72
79467;SHT30;68933;49.726;9.226;2023-04-25T00:48:38;10.5;72
79467;SHT30;68933;49.726;9.226;2023-04-25T00:50:52;10.5;72
79467;SHT30;68933;49.726;9.226;2023-04-25T00:53:04;10.5;72
79467;SHT30;68933;49.726;9.226;2023-04-25T00:55:17;10.5;72
79467;SHT30;68933;49.726;9.226;2023-04-25T00:57:30;10.5;72
79467;SHT30;68933;49.726;9.226;2023-04-25T00:59:44;10.5;72
79467;SHT30;68933;49.726;9.226;2023-04-25T01:01:56;10.5;72
79467;SHT30;68933;49.726;9.226;2023-04-25T01:04:09;10.5;72
79467;SHT30;68933;49.726;9.226;2023-04-25T01:06:22;10.5;72
79467;SHT30;68933;49.726;9.226;2023-04-25T01:08:36;10.5;72
79467;SHT30;68933;49.726;9.226;2023-04-25T01:10:48;10.5;72
79467;SHT30;68933;49.726;9.226;2023-04-25T01:13:02;10.5;72
79467;SHT30;68933;49.726;9.226;2023-04-25T01:15:14;10.5;72
79467;SHT30;68933;49.726;9.226;2023-04-25T01:17:27;10.5;72
79467;SHT30;68933;49.726;9.226;2023-04-25T01:19:41;10.5;72
79467;SHT30;68933;49.726;9.226;2023-04-25T01:21:53;10.5;72
79467;SHT30;68933;49.726;9.226;2023-04-25T01:24:06;10.4;71
79467;SHT30;68933;49.726;9.226;2023-04-25T01:26:19;10.4;71
79467;SHT30;68933;49.726;9.226;2023-04-25T01:28:33;10.4;72
79467;SHT30;68933;49.726;9.226;2023-04-25T01:30:45;10.4;72
79467;SHT30;68933;49.726;9.226;2023-04-25T01:32:58;10.4;72
79467;SHT30;68933;49.726;9.226;2023-04-25T01:35:11;10.4;72
79467;SHT30;68933;49.726;9.226;2023-04-25T01:37:24;10.4;72
79467;SHT30;68933;49.726;9.226;2023-04-25T01:39:37;10.3;72
79467;SHT30;68933;49.726;9.226;2023-04-25T01:41:50;10.3;72
79467;SHT30;68933;49.726;9.226;2023-04-25T01:44:03;10.3;72
79467;SHT30;68933;49.726;9.226;2023-04-25T01:46:16;10.3;72
79467;SHT30;68933;49.726;9.226;2023-04-25T01:48:29;10.3;72
79467;SHT30;68933;49.726;9.226;2023-04-25T01:50:43;10.3;72
79467;SHT30;68933;49.726;9.226;2023-04-25T01:52:55;10.3;72
79467;SHT30;68933;49.726;9.226;2023-04-25T01:55:09;10.3;72
79467;SHT30;68933;49.726;9.226;2023-04-25T01:57:21;10.3;72
79467;SHT30;68933;49.726;9.226;2023-04-25T01:59:34;10.3;72
79467;SHT30;68933;49.726;9.226;2023-04-25T02:01:47;10.3;72
79467;SHT30;68933;49.726;9.226;2023-04-25T02:04:00;10.3;72
79467;SHT30;68933;49.726;9.226;2023-04-25T02:06:13;10.3;72
79467;SHT30;68933;49.726;9.226;2023-04-25T02:08:26;10.3;72
79467;SHT30;68933;49.726;9.226;2023-04-25T02:10:39;10.2;72
79467;SHT30;68933;49.726;9.226;2023-04-25T02:12:52;10.2;72
79467;SHT30;68933;49.726;9.226;2023-04-25T02:15:06;10.2;72
79467;SHT30;68933;49.726;9.226;2023-04-25T02:17:18;10.2;72
79467;SHT30;68933;49.726;9.226;2023-04-25T02:19:31;10.2;72
79467;SHT30;68933;49.726;9.226;2023-04-25T02:21:44;10.2;72
79467;SHT30;68933;49.726;9.226;2023-04-25T02:23:57;10.2;72
79467;SHT30;68933;49.726;9.226;2023-04-25T02:26:10;10.2;72
79467;SHT30;68933;49.726;9.226;2023-04-25T02:28:23;10.2;72
79467;SHT30;68933;49.726;9.226;2023-04-25T02:30:36;10.2;72
79467;SHT30;68933;49.726;9.226;2023-04-25T02:32:49;10.2;72
79467;SHT30;68933;49.726;9.226;2023-04-25T02:35:02;10.2;72
79467;SHT30;68933;49.726;9.226;2023-04-25T02:37:15;10.2;72
79467;SHT30;68933;49.726;9.226;2023-04-25T02:39:28;10.2;72
79467;SHT30;68933;49.726;9.226;2023-04-25T02:41:41;10.2;72
79467;SHT30;68933;49.726;9.226;2023-04-25T02:43:55;10.2;72
79467;SHT30;68933;49.726;9.226;2023-04-25T02:46:07;10.2;72
79467;SHT30;68933;49.726;9.226;2023-04-25T02:48:20;10.2;72
79467;SHT30;68933;49.726;9.226;2023-04-25T02:50:33;10.2;72
79467;SHT30;68933;49.726;9.226;2023-04-25T02:52:46;10.2;72
79467;SHT30;68933;49.726;9.226;2023-04-25T02:54:59;10.2;72
79467;SHT30;68933;49.726;9.226;2023-04-25T02:57:12;10.2;72
79467;SHT30;68933;49.726;9.226;2023-04-25T02:59:25;10.2;72
79467;SHT30;68933;49.726;9.226;2023-04-25T03:01:38;10.2;72
79467;SHT30;68933;49.726;9.226;2023-04-25T03:03:52;10.2;72
79467;SHT30;68933;49.726;9.226;2023-04-25T03:06:04;10.2;72
79467;SHT30;68933;49.726;9.226;2023-04-25T03:08:17;10.2;72
79467;SHT30;68933;49.726;9.226;2023-04-25T03:10:30;10.2;72
79467;SHT30;68933;49.726;9.226;2023-04-25T03:12:43;10.1;72
79467;SHT30;68933;49.726;9.226;2023-04-25T03:14:56;10.1;72
79467;SHT30;68933;49.726;9.226;2023-04-25T03:17:09;10.2;72
79467;SHT30;68933;49.726;9.226;2023-04-25T03:19:22;10.2;72
79467;SHT30;68933;49.726;9.226;2023-04-25T03:21:35;10.1;72
79467;SHT30;68933;49.726;9.226;2023-04-25T03:23:48;10.1;72
79467;SHT30;68933;49.726;9.226;2023-04-25T03:26:01;10.1;74
79467;SHT30;68933;49.726;9.226;2023-04-25T03:28:14;10.1;74
79467;SHT30;68933;49.726;9.226;2023-04-25T03:30:27;10.1;74
79467;SHT30;68933;49.726;9.226;2023-04-25T03:32:40;10.1;74
79467;SHT30;68933;49.726;9.226;2023-04-25T03:34:53;10.1;74
79467;SHT30;68933;49.726;9.226;2023-04-25T03:37:06;10.1;74
79467;SHT30;68933;49.726;9.226;2023-04-25T03:39:19;10.1;74
79467;SHT30;68933;49.726;9.226;2023-04-25T03:41:32;10.1;74
79467;SHT30;68933;49.726;9.226;2023-04-25T03:43:45;10.1;74
79467;SHT30;68933;49.726;9.226;2023-04-25T03:45:58;10.1;72
79467;SHT30;68933;49.726;9.226;2023-04-25T03:48:11;10.1;72
79467;SHT30;68933;49.726;9.226;2023-04-25T03:50:24;10;74
79467;SHT30;68933;49.726;9.226;2023-04-25T03:52:37;10;74
79467;SHT30;68933;49.726;9.226;2023-04-25T03:54:50;10;74
79467;SHT30;68933;49.726;9.226;2023-04-25T03:57:03;10;74
79467;SHT30;68933;49.726;9.226;2023-04-25T03:59:16;10;74
79467;SHT30;68933;49.726;9.226;2023-04-25T04:01:29;10;74
79467;SHT30;68933;49.726;9.226;2023-04-25T04:03:42;10;74
79467;SHT30;68933;49.726;9.226;2023-04-25T04:05:55;10;72
79467;SHT30;68933;49.726;9.226;2023-04-25T04:08:08;10;72
79467;SHT30;68933;49.726;9.226;2023-04-25T04:10:22;10;72
79467;SHT30;68933;49.726;9.226;2023-04-25T04:12:34;10;74
79467;SHT30;68933;49.726;9.226;2023-04-25T04:14:47;10;74
79467;SHT30;68933;49.726;9.226;2023-04-25T04:17:00;10;74
79467;SHT30;68933;49.726;9.226;2023-04-25T04:19:14;10;74
79467;SHT30;68933;49.726;9.226;2023-04-25T04:21:26;10;74
79467;SHT30;68933;49.726;9.226;2023-04-25T04:23:39;10;74
79467;SHT30;68933;49.726;9.226;2023-04-25T04:25:52;10;74
79467;SHT30;68933;49.726;9.226;2023-04-25T04:28:05;10;72
79467;SHT30;68933;49.726;9.226;2023-04-25T04:30:18;10;72
79467;SHT30;68933;49.726;9.226;2023-04-25T04:32:31;10;74
79467;SHT30;68933;49.726;9.226;2023-04-25T04:34:44;10;74
79467;SHT30;68933;49.726;9.226;2023-04-25T04:36:57;10;74
79467;SHT30;68933;49.726;9.226;2023-04-25T04:39:10;9.9;74
79467;SHT30;68933;49.726;9.226;2023-04-25T04:41:23;9.9;74
79467;SHT30;68933;49.726;9.226;2023-04-25T04:43:36;9.9;74
79467;SHT30;68933;49.726;9.226;2023-04-25T04:45:49;9.9;74
79467;SHT30;68933;49.726;9.226;2023-04-25T04:48:02;9.9;75
79467;SHT30;68933;49.726;9.226;2023-04-25T04:50:15;9.9;75
79467;SHT30;68933;49.726;9.226;2023-04-25T04:52:28;9.9;75
79467;SHT30;68933;49.726;9.226;2023-04-25T04:54:41;9.8;75
79467;SHT30;68933;49.726;9.226;2023-04-25T04:56:54;9.8;75
79467;SHT30;68933;49.726;9.226;2023-04-25T04:59:07;9.9;75
79467;SHT30;68933;49.726;9.226;2023-04-25T05:01:20;9.9;75
79467;SHT30;68933;49.726;9.226;2023-04-25T05:03:33;9.9;75
79467;SHT30;68933;49.726;9.226;2023-04-25T05:05:46;9.9;75
79467;SHT30;68933;49.726;9.226;2023-04-25T05:07:59;9.9;75
79467;SHT30;68933;49.726;9.226;2023-04-25T05:10:12;9.9;74
79467;SHT30;68933;49.726;9.226;2023-04-25T05:12:25;9.9;74
79467;SHT30;68933;49.726;9.226;2023-04-25T05:14:38;9.9;74
79467;SHT30;68933;49.726;9.226;2023-04-25T05:16:51;9.9;74
79467;SHT30;68933;49.726;9.226;2023-04-25T05:19:04;9.9;74
79467;SHT30;68933;49.726;9.226;2023-04-25T05:21:17;9.9;74
79467;SHT30;68933;49.726;9.226;2023-04-25T05:23:30;9.9;74
79467;SHT30;68933;49.726;9.226;2023-04-25T05:25:43;9.9;74
79467;SHT30;68933;49.726;9.226;2023-04-25T05:27:56;9.9;74
79467;SHT30;68933;49.726;9.226;2023-04-25T05:30:10;10;75
79467;SHT30;68933;49.726;9.226;2023-04-25T05:32:22;10;75
79467;SHT30;68933;49.726;9.226;2023-04-25T05:34:35;10;75
79467;SHT30;68933;49.726;9.226;2023-04-25T05:36:48;10;75
79467;SHT30;68933;49.726;9.226;2023-04-25T05:39:01;10;75
79467;SHT30;68933;49.726;9.226;2023-04-25T05:41:14;10;75
79467;SHT30;68933;49.726;9.226;2023-04-25T05:43:27;10;75
79467;SHT30;68933;49.726;9.226;2023-04-25T05:45:40;10.1;74
79467;SHT30;68933;49.726;9.226;2023-04-25T05:47:53;10.1;74
79467;SHT30;68933;49.726;9.226;2023-04-25T05:50:07;10.1;74
79467;SHT30;68933;49.726;9.226;2023-04-25T05:52:19;10.1;74
79467;SHT30;68933;49.726;9.226;2023-04-25T05:54:32;10.1;72
79467;SHT30;68933;49.726;9.226;2023-04-25T05:56:45;10.1;72
79467;SHT30;68933;49.726;9.226;2023-04-25T05:58:58;10.1;72
79467;SHT30;68933;49.726;9.226;2023-04-25T06:01:11;10.2;72
79467;SHT30;68933;49.726;9.226;2023-04-25T06:03:24;10.2;72
79467;SHT30;68933;49.726;9.226;2023-04-25T06:05:37;10.2;72
79467;SHT30;68933;49.726;9.226;2023-04-25T06:07:50;10.2;72
79467;SHT30;68933;49.726;9.226;2023-04-25T06:10:04;10.1;72
79467;SHT30;68933;49.726;9.226;2023-04-25T06:12:17;10.1;72
79467;SHT30;68933;49.726;9.226;2023-04-25T06:14:29;10.1;72
79467;SHT30;68933;49.726;9.226;2023-04-25T06:16:42;10.2;71
79467;SHT30;68933;49.726;9.226;2023-04-25T06:18:55;10.2;71
79467;SHT30;68933;49.726;9.226;2023-04-25T06:21:08;10.2;71
79467;SHT30;68933;49.726;9.226;2023-04-25T06:23:21;10.2;71
79467;SHT30;68933;49.726;9.226;2023-04-25T06:25:34;10.2;71
79467;SHT30;68933;49.726;9.226;2023-04-25T06:27:47;10.2;71
79467;SHT30;68933;49.726;9.226;2023-04-25T06:30:00;10.2;70
79467;SHT30;68933;49.726;9.226;2023-04-25T06:32:13;10.2;70
79467;SHT30;68933;49.726;9.226;2023-04-25T06:34:26;10.2;70
79467;SHT30;68933;49.726;9.226;2023-04-25T06:36:39;10.2;70
79467;SHT30;68933;49.726;9.226;2023-04-25T06:38:52;10.2;70
79467;SHT30;68933;49.726;9.226;2023-04-25T06:41:05;10.3;70
79467;SHT30;68933;49.726;9.226;2023-04-25T06:43:18;10.3;70
79467;SHT30;68933;49.726;9.226;2023-04-25T06:45:31;10.4;70
79467;SHT30;68933;49.726;9.226;2023-04-25T06:47:44;10.4;70
79467;SHT30;68933;49.726;9.226;2023-04-25T06:49:57;10.3;68
79467;SHT30;68933;49.726;9.226;2023-04-25T06:52:10;10.3;68
79467;SHT30;68933;49.726;9.226;2023-04-25T06:54:23;10.3;68
79467;SHT30;68933;49.726;9.226;2023-04-25T06:56:36;10.3;68
79467;SHT30;68933;49.726;9.226;2023-04-25T06:58:49;10.3;68
79467;SHT30;68933;49.726;9.226;2023-04-25T07:01:02;10.2;68
79467;SHT30;68933;49.726;9.226;2023-04-25T07:03:15;10.2;68
79467;SHT30;68933;49.726;9.226;2023-04-25T07:05:28;10.2;68
79467;SHT30;68933;49.726;9.226;2023-04-25T07:07:41;10.2;68
79467;SHT30;68933;49.726;9.226;2023-04-25T07:09:54;10.2;68
79467;SHT30;68933;49.726;9.226;2023-04-25T07:12:07;10.2;68
79467;SHT30;68933;49.726;9.226;2023-04-25T07:14:20;10.3;68
79467;SHT30;68933;49.726;9.226;2023-04-25T07:16:33;10.3;68
79467;SHT30;68933;49.726;9.226;2023-04-25T07:18:46;10.3;68
79467;SHT30;68933;49.726;9.226;2023-04-25T07:20:59;10.3;68
79467;SHT30;68933;49.726;9.226;2023-04-25T07:23:12;10.3;68
79467;SHT30;68933;49.726;9.226;2023-04-25T07:25:25;10.3;68
79467;SHT30;68933;49.726;9.226;2023-04-25T07:27:38;10.3;68
79467;SHT30;68933;49.726;9.226;2023-04-25T07:29:51;10.4;68
79467;SHT30;68933;49.726;9.226;2023-04-25T07:32:04;10.4;68
79467;SHT30;68933;49.726;9.226;2023-04-25T07:34:17;10.4;68
79467;SHT30;68933;49.726;9.226;2023-04-25T07:36:30;10.6;68
79467;SHT30;68933;49.726;9.226;2023-04-25T07:38:43;10.6;68
79467;SHT30;68933;49.726;9.226;2023-04-25T07:40:56;10.6;68
79467;SHT30;68933;49.726;9.226;2023-04-25T07:43:09;10.7;67
79467;SHT30;68933;49.726;9.226;2023-04-25T07:45:22;10.7;67
79467;SHT30;68933;49.726;9.226;2023-04-25T07:47:35;10.9;66
79467;SHT30;68933;49.726;9.226;2023-04-25T07:49:48;10.9;66
79467;SHT30;68933;49.726;9.226;2023-04-25T07:52:02;11;66
79467;SHT30;68933;49.726;9.226;2023-04-25T07:54:14;11;66
79467;SHT30;68933;49.726;9.226;2023-04-25T07:56:27;11;66
79467;SHT30;68933;49.726;9.226;2023-04-25T07:58:40;11.1;66
79467;SHT30;68933;49.726;9.226;2023-04-25T08:00:53;11.1;66
79467;SHT30;68933;49.726;9.226;2023-04-25T08:03:06;11.3;64
79467;SHT30;68933;49.726;9.226;2023-04-25T08:05:19;11.3;64
79467;SHT30;68933;49.726;9.226;2023-04-25T08:07:32;11.3;64
79467;SHT30;68933;49.726;9.226;2023-04-25T08:09:45;11.6;64
79467;SHT30;68933;49.726;9.226;2023-04-25T08:11:58;11.6;64
79467;SHT30;68933;49.726;9.226;2023-04-25T08:14:11;11.8;64
79467;SHT30;68933;49.726;9.226;2023-04-25T08:16:25;11.8;64
79467;SHT30;68933;49.726;9.226;2023-04-25T08:18:37;12.1;63
79467;SHT30;68933;49.726;9.226;2023-04-25T08:20:50;12.1;63
79467;SHT30;68933;49.726;9.226;2023-04-25T08:23:03;12.1;63
79467;SHT30;68933;49.726;9.226;2023-04-25T08:25:16;12.4;60
79467;SHT30;68933;49.726;9.226;2023-04-25T08:27:29;12.4;60
79467;SHT30;68933;49.726;9.226;2023-04-25T08:29:42;12.5;59
79467;SHT30;68933;49.726;9.226;2023-04-25T08:31:55;12.5;59
79467;SHT30;68933;49.726;9.226;2023-04-25T08:34:08;12.6;59
79467;SHT30;68933;49.726;9.226;2023-04-25T08:36:21;12.6;59
79467;SHT30;68933;49.726;9.226;2023-04-25T08:38:34;12.6;59
79467;SHT30;68933;49.726;9.226;2023-04-25T08:40:48;12.7;56
79467;SHT30;68933;49.726;9.226;2023-04-25T08:43:00;12.7;56
79467;SHT30;68933;49.726;9.226;2023-04-25T08:45:13;12.6;55
79467;SHT30;68933;49.726;9.226;2023-04-25T08:47:26;12.6;55
79467;SHT30;68933;49.726;9.226;2023-04-25T08:49:39;12.6;55
79467;SHT30;68933;49.726;9.226;2023-04-25T08:51:52;12.6;55
79467;SHT30;68933;49.726;9.226;2023-04-25T08:54:08;12.6;55
79467;SHT30;68933;49.726;9.226;2023-04-25T08:56:18;12.4;53
79467;SHT30;68933;49.726;9.226;2023-04-25T08:58:31;12.4;53
79467;SHT30;68933;49.726;9.226;2023-04-25T09:00:45;12.4;53
79467;SHT30;68933;49.726;9.226;2023-04-25T09:02:58;12.4;53
79467;SHT30;68933;49.726;9.226;2023-04-25T09:05:12;12.4;53
79467;SHT30;68933;49.726;9.226;2023-04-25T09:07:23;12.4;53
79467;SHT30;68933;49.726;9.226;2023-04-25T09:09:36;12.4;52
79467;SHT30;68933;49.726;9.226;2023-04-25T09:11:49;12.4;52
79467;SHT30;68933;49.726;9.226;2023-04-25T09:14:10;12.4;52
79467;SHT30;68933;49.726;9.226;2023-04-25T09:16:15;12.5;53
79467;SHT30;68933;49.726;9.226;2023-04-25T09:18:29;12.5;53
79467;SHT30;68933;49.726;9.226;2023-04-25T09:20:41;12.6;53
79467;SHT30;68933;49.726;9.226;2023-04-25T09:23:02;12.6;53
79467;SHT30;68933;49.726;9.226;2023-04-25T09:25:08;12.9;52
79467;SHT30;68933;49.726;9.226;2023-04-25T09:27:21;12.9;52
79467;SHT30;68933;49.726;9.226;2023-04-25T09:29:34;13.1;52
79467;SHT30;68933;49.726;9.226;2023-04-25T09:31:46;13.1;52
79467;SHT30;68933;49.726;9.226;2023-04-25T09:34:00;13.2;52
79467;SHT30;68933;49.726;9.226;2023-04-25T09:36:12;13.2;52
79467;SHT30;68933;49.726;9.226;2023-04-25T09:38:25;13.2;52
79467;SHT30;68933;49.726;9.226;2023-04-25T09:40:39;13.5;52
79467;SHT30;68933;49.726;9.226;2023-04-25T09:42:51;13.5;52
79467;SHT30;68933;49.726;9.226;2023-04-25T09:45:04;14;51
79467;SHT30;68933;49.726;9.226;2023-04-25T09:47:17;14;51
79467;SHT30;68933;49.726;9.226;2023-04-25T09:49:30;14.2;49
79467;SHT30;68933;49.726;9.226;2023-04-25T09:51:47;14.2;49
79467;SHT30;68933;49.726;9.226;2023-04-25T09:53:56;14.1;48
79467;SHT30;68933;49.726;9.226;2023-04-25T09:56:10;14.1;48
79467;SHT30;68933;49.726;9.226;2023-04-25T09:58:22;14.1;48
79467;SHT30;68933;49.726;9.226;2023-04-25T10:00:35;14;49
79467;SHT30;68933;49.726;9.226;2023-04-25T10:02:48;14;49
79467;SHT30;68933;49.726;9.226;2023-04-25T10:05:01;13.9;49
79467;SHT30;68933;49.726;9.226;2023-04-25T10:07:14;13.9;49
79467;SHT30;68933;49.726;9.226;2023-04-25T10:09:27;14.2;51
79467;SHT30;68933;49.726;9.226;2023-04-25T10:11:40;14.2;51
79467;SHT30;68933;49.726;9.226;2023-04-25T10:13:53;14.5;49
79467;SHT30;68933;49.726;9.226;2023-04-25T10:16:06;14.5;49
79467;SHT30;68933;49.726;9.226;2023-04-25T10:18:19;14.5;49
79467;SHT30;68933;49.726;9.226;2023-04-25T10:20:32;14.5;49
79467;SHT30;68933;49.726;9.226;2023-04-25T10:22:45;14.5;49
79467;SHT30;68933;49.726;9.226;2023-04-25T10:24:58;14.5;49
79467;SHT30;68933;49.726;9.226;2023-04-25T10:27:11;14.5;49
79467;SHT30;68933;49.726;9.226;2023-04-25T10:29:25;14.5;49
79467;SHT30;68933;49.726;9.226;2023-04-25T10:31:44;14.5;49
79467;SHT30;68933;49.726;9.226;2023-04-25T10:33:50;14.3;48
79467;SHT30;68933;49.726;9.226;2023-04-25T10:36:11;14.3;48
79467;SHT30;68933;49.726;9.226;2023-04-25T10:38:16;14.3;48
79467;SHT30;68933;49.726;9.226;2023-04-25T10:40:30;14.2;48
79467;SHT30;68933;49.726;9.226;2023-04-25T10:42:42;14.2;48
79467;SHT30;68933;49.726;9.226;2023-04-25T10:45:00;14.2;48
79467;SHT30;68933;49.726;9.226;2023-04-25T10:47:08;14.2;48
79467;SHT30;68933;49.726;9.226;2023-04-25T10:49:29;14.2;48
79467;SHT30;68933;49.726;9.226;2023-04-25T10:51:34;14;49
79467;SHT30;68933;49.726;9.226;2023-04-25T10:53:56;14;49
79467;SHT30;68933;49.726;9.226;2023-04-25T10:56:01;14.1;49
79467;SHT30;68933;49.726;9.226;2023-04-25T10:58:13;14.1;49
79467;SHT30;68933;49.726;9.226;2023-04-25T11:00:26;13.9;51
79467;SHT30;68933;49.726;9.226;2023-04-25T11:02:40;13.9;51
79467;SHT30;68933;49.726;9.226;2023-04-25T11:04:52;13.9;51
79467;SHT30;68933;49.726;9.226;2023-04-25T11:07:07;13.8;52
79467;SHT30;68933;49.726;9.226;2023-04-25T11:09:18;13.8;52
79467;SHT30;68933;49.726;9.226;2023-04-25T11:11:31;13.8;52
79467;SHT30;68933;49.726;9.226;2023-04-25T11:13:47;13.8;52
79467;SHT30;68933;49.726;9.226;2023-04-25T11:15:57;13.8;52
79467;SHT30;68933;49.726;9.226;2023-04-25T11:18:15;13.7;51
79467;SHT30;68933;49.726;9.226;2023-04-25T11:20:25;13.7;51
79467;SHT30;68933;49.726;9.226;2023-04-25T11:22:37;13.6;51
79467;SHT30;68933;49.726;9.226;2023-04-25T11:24:49;13.6;51
79467;SHT30;68933;49.726;9.226;2023-04-25T11:27:03;13.5;51
79467;SHT30;68933;49.726;9.226;2023-04-25T11:29:15;13.5;51
79467;SHT30;68933;49.726;9.226;2023-04-25T11:31:28;13.5;51
79467;SHT30;68933;49.726;9.226;2023-04-25T11:33:41;13.5;51
79467;SHT30;68933;49.726;9.226;2023-04-25T11:35:54;13.5;51
79467;SHT30;68933;49.726;9.226;2023-04-25T11:38:07;13.6;51
79467;SHT30;68933;49.726;9.226;2023-04-25T11:40:20;13.6;51
79467;SHT30;68933;49.726;9.226;2023-04-25T11:42:33;13.5;49
79467;SHT30;68933;49.726;9.226;2023-04-25T11:44:46;13.5;49
79467;SHT30;68933;49.726;9.226;2023-04-25T11:46:59;13.5;49
79467;SHT30;68933;49.726;9.226;2023-04-25T11:49:12;13.6;49
79467;SHT30;68933;49.726;9.226;2023-04-25T11:51:25;13.6;49
79467;SHT30;68933;49.726;9.226;2023-04-25T11:53:40;13.7;49
79467;SHT30;68933;49.726;9.226;2023-04-25T11:55:51;13.7;49
79467;SHT30;68933;49.726;9.226;2023-04-25T11:58:04;13.7;49
79467;SHT30;68933;49.726;9.226;2023-04-25T12:00:18;13.7;49
79467;SHT30;68933;49.726;9.226;2023-04-25T12:02:30;13.7;49
79467;SHT30;68933;49.726;9.226;2023-04-25T12:04:43;13.7;49
79467;SHT30;68933;49.726;9.226;2023-04-25T12:06:56;13.7;49
79467;SHT30;68933;49.726;9.226;2023-04-25T12:09:10;13.7;49
79467;SHT30;68933;49.726;9.226;2023-04-25T12:11:22;13.7;49
79467;SHT30;68933;49.726;9.226;2023-04-25T12:13:35;13.8;49
79467;SHT30;68933;49.726;9.226;2023-04-25T12:15:48;13.8;49
79467;SHT30;68933;49.726;9.226;2023-04-25T12:18:01;13.8;49
79467;SHT30;68933;49.726;9.226;2023-04-25T12:20:15;13.8;49
79467;SHT30;68933;49.726;9.226;2023-04-25T12:22:28;13.8;49
79467;SHT30;68933;49.726;9.226;2023-04-25T12:24:44;13.6;49
79467;SHT30;68933;49.726;9.226;2023-04-25T12:26:57;13.6;49
79467;SHT30;68933;49.726;9.226;2023-04-25T12:29:14;13.5;49
79467;SHT30;68933;49.726;9.226;2023-04-25T12:31:19;13.5;49
79467;SHT30;68933;49.726;9.226;2023-04-25T12:33:33;13.5;51
79467;SHT30;68933;49.726;9.226;2023-04-25T12:35:45;13.5;51
79467;SHT30;68933;49.726;9.226;2023-04-25T12:37:58;13.4;51
79467;SHT30;68933;49.726;9.226;2023-04-25T12:40:11;13.4;51
79467;SHT30;68933;49.726;9.226;2023-04-25T12:42:24;13.4;49
79467;SHT30;68933;49.726;9.226;2023-04-25T12:44:37;13.4;49
79467;SHT30;68933;49.726;9.226;2023-04-25T12:46:50;13.4;49
79467;SHT30;68933;49.726;9.226;2023-04-25T12:49:03;13.4;49
79467;SHT30;68933;49.726;9.226;2023-04-25T12:51:16;13.4;49
79467;SHT30;68933;49.726;9.226;2023-04-25T12:53:29;13.4;49
79467;SHT30;68933;49.726;9.226;2023-04-25T12:55:42;13.4;49
79467;SHT30;68933;49.726;9.226;2023-04-25T12:57:55;13.4;49
79467;SHT30;68933;49.726;9.226;2023-04-25T13:00:09;13.4;49
79467;SHT30;68933;49.726;9.226;2023-04-25T13:02:21;13.4;49
79467;SHT30;68933;49.726;9.226;2023-04-25T13:04:34;13.4;49
79467;SHT30;68933;49.726;9.226;2023-04-25T13:06:47;13.4;49
79467;SHT30;68933;49.726;9.226;2023-04-25T13:09:00;13.3;49
79467;SHT30;68933;49.726;9.226;2023-04-25T13:11:13;13.3;49
79467;SHT30;68933;49.726;9.226;2023-04-25T13:13:26;13.3;51
79467;SHT30;68933;49.726;9.226;2023-04-25T13:15:39;13.3;51
79467;SHT30;68933;49.726;9.226;2023-04-25T13:17:52;13.2;51
79467;SHT30;68933;49.726;9.226;2023-04-25T13:20:06;13.2;51
79467;SHT30;68933;49.726;9.226;2023-04-25T13:22:18;13.2;51
79467;SHT30;68933;49.726;9.226;2023-04-25T13:24:31;13.2;51
79467;SHT30;68933;49.726;9.226;2023-04-25T13:26:44;13.6;51
79467;SHT30;68933;49.726;9.226;2023-04-25T13:28:57;13.6;51
79467;SHT30;68933;49.726;9.226;2023-04-25T13:31:10;13.8;51
79467;SHT30;68933;49.726;9.226;2023-04-25T13:33:23;13.8;51
79467;SHT30;68933;49.726;9.226;2023-04-25T13:35:37;13.8;49
79467;SHT30;68933;49.726;9.226;2023-04-25T13:37:49;13.8;49
79467;SHT30;68933;49.726;9.226;2023-04-25T13:40:03;13.8;49
79467;SHT30;68933;49.726;9.226;2023-04-25T13:42:15;13.6;48
79467;SHT30;68933;49.726;9.226;2023-04-25T13:44:28;13.6;48
79467;SHT30;68933;49.726;9.226;2023-04-25T13:46:41;13.6;48
79467;SHT30;68933;49.726;9.226;2023-04-25T13:48:54;13.5;49
79467;SHT30;68933;49.726;9.226;2023-04-25T13:51:07;13.5;49
79467;SHT30;68933;49.726;9.226;2023-04-25T13:53:20;13.6;49
79467;SHT30;68933;49.726;9.226;2023-04-25T13:55:33;13.6;49
79467;SHT30;68933;49.726;9.226;2023-04-25T13:57:46;13.7;49
79467;SHT30;68933;49.726;9.226;2023-04-25T13:59:59;13.7;49
79467;SHT30;68933;49.726;9.226;2023-04-25T14:02:12;13.7;49
79467;SHT30;68933;49.726;9.226;2023-04-25T14:04:25;13.8;48
79467;SHT30;68933;49.726;9.226;2023-04-25T14:06:39;13.8;48
79467;SHT30;68933;49.726;9.226;2023-04-25T14:08:51;14;48
79467;SHT30;68933;49.726;9.226;2023-04-25T14:11:04;14;48
79467;SHT30;68933;49.726;9.226;2023-04-25T14:13:17;14;48
79467;SHT30;68933;49.726;9.226;2023-04-25T14:15:31;14;48
79467;SHT30;68933;49.726;9.226;2023-04-25T14:17:43;14;48
79467;SHT30;68933;49.726;9.226;2023-04-25T14:19:56;14.1;47
79467;SHT30;68933;49.726;9.226;2023-04-25T14:22:09;14.1;47
79467;SHT30;68933;49.726;9.226;2023-04-25T14:24:22;14;47
79467;SHT30;68933;49.726;9.226;2023-04-25T14:26:35;14;47
79467;SHT30;68933;49.726;9.226;2023-04-25T14:28:49;14;47
79467;SHT30;68933;49.726;9.226;2023-04-25T14:31:01;13.8;48
79467;SHT30;68933;49.726;9.226;2023-04-25T14:33:14;13.8;48
79467;SHT30;68933;49.726;9.226;2023-04-25T14:35:27;13.7;47
79467;SHT30;68933;49.726;9.226;2023-04-25T14:37:40;13.7;47
79467;SHT30;68933;49.726;9.226;2023-04-25T14:39:53;13.7;48
79467;SHT30;68933;49.726;9.226;2023-04-25T14:42:06;13.7;48
79467;SHT30;68933;49.726;9.226;2023-04-25T14:44:19;13.7;48
79467;SHT30;68933;49.726;9.226;2023-04-25T14:46:32;13.6;47
79467;SHT30;68933;49.726;9.226;2023-04-25T14:48:45;13.6;47
79467;SHT30;68933;49.726;9.226;2023-04-25T14:50:58;13.5;47
79467;SHT30;68933;49.726;9.226;2023-04-25T14:53:11;13.5;47
79467;SHT30;68933;49.726;9.226;2023-04-25T14:55:24;13.5;47
79467;SHT30;68933;49.726;9.226;2023-04-25T14:57:37;13.5;47
79467;SHT30;68933;49.726;9.226;2023-04-25T14:59:50;13.5;47
79467;SHT30;68933;49.726;9.226;2023-04-25T15:02:03;13.5;47